< < Back
Terminal Aerodrome Forecast


Current Version              Previous Versions:   1  2  3  4  5  6  7  8  9  

Terminal Aerodrome Forecast

511
FTUS44 KBMX 282300
TAFTCL
TAF
KTCL 282336Z 0100/0124 12005KT P6SM BKN040
     FM010300 12006KT P6SM BKN025
     FM010600 12006KT P6SM OVC015
     FM010900 11005KT 4SM -DZ BR OVC008=



Latest METAR

159
SAUS70 KWBC 010300 RRP
MTRTCL
METAR KTCL 010253Z AUTO 12006KT 10SM BKN037 OVC050 15/03 A3041 RMK AO2
SLP298 T01500028 53012


USA.gov is the U.S. government's official web portal to all federal, state and local government web resources and services.